sensor_id;sensor_type;location;lat;lon;timestamp;pressure;altitude;pressure_sealevel;temperature
40199;BMP280;25906;43.536;26.068;2024-02-23T00:00:54;98591.94;;;7.81
40199;BMP280;25906;43.536;26.068;2024-02-23T00:03:40;98586.81;;;7.70
40199;BMP280;25906;43.536;26.068;2024-02-23T00:06:25;98586.81;;;7.70
40199;BMP280;25906;43.536;26.068;2024-02-23T00:09:12;98579.78;;;7.64
40199;BMP280;25906;43.536;26.068;2024-02-23T00:11:58;98577.47;;;7.66
40199;BMP280;25906;43.536;26.068;2024-02-23T00:14:43;98584.19;;;7.70
40199;BMP280;25906;43.536;26.068;2024-02-23T00:17:29;98577.91;;;7.64
40199;BMP280;25906;43.536;26.068;2024-02-23T00:20:14;98572.88;;;7.73
40199;BMP280;25906;43.536;26.068;2024-02-23T00:23:02;98563.78;;;7.74
40199;BMP280;25906;43.536;26.068;2024-02-23T00:25:48;98558.22;;;7.72
40199;BMP280;25906;43.536;26.068;2024-02-23T00:28:33;98562.88;;;7.84
40199;BMP280;25906;43.536;26.068;2024-02-23T00:31:18;98549.41;;;7.79
40199;BMP280;25906;43.536;26.068;2024-02-23T00:34:04;98552.34;;;7.84
40199;BMP280;25906;43.536;26.068;2024-02-23T00:36:49;98545.97;;;7.82
40199;BMP280;25906;43.536;26.068;2024-02-23T00:39:35;98547.81;;;7.85
40199;BMP280;25906;43.536;26.068;2024-02-23T00:42:21;98542.47;;;7.89
40199;BMP280;25906;43.536;26.068;2024-02-23T00:45:07;98547.75;;;7.89
40199;BMP280;25906;43.536;26.068;2024-02-23T00:47:53;98540.13;;;7.94
40199;BMP280;25906;43.536;26.068;2024-02-23T00:50:38;98538.63;;;7.93
40199;BMP280;25906;43.536;26.068;2024-02-23T00:53:24;98540.72;;;8.02
40199;BMP280;25906;43.536;26.068;2024-02-23T00:56:09;98545.97;;;8.05
40199;BMP280;25906;43.536;26.068;2024-02-23T00:58:55;98544.59;;;7.97
40199;BMP280;25906;43.536;26.068;2024-02-23T01:01:40;98537.53;;;7.91
40199;BMP280;25906;43.536;26.068;2024-02-23T01:04:26;98529.31;;;7.89
40199;BMP280;25906;43.536;26.068;2024-02-23T01:07:11;98528.97;;;7.87
40199;BMP280;25906;43.536;26.068;2024-02-23T01:09:56;98516.94;;;7.85
40199;BMP280;25906;43.536;26.068;2024-02-23T01:12:43;98517.56;;;7.93
40199;BMP280;25906;43.536;26.068;2024-02-23T01:15:29;98515.84;;;7.83
40199;BMP280;25906;43.536;26.068;2024-02-23T01:18:14;98511.41;;;7.80
40199;BMP280;25906;43.536;26.068;2024-02-23T01:21:00;98509.97;;;7.75
40199;BMP280;25906;43.536;26.068;2024-02-23T01:23:45;98508.78;;;7.80
40199;BMP280;25906;43.536;26.068;2024-02-23T01:26:31;98502.41;;;7.77
40199;BMP280;25906;43.536;26.068;2024-02-23T01:29:16;98505.84;;;7.74
40199;BMP280;25906;43.536;26.068;2024-02-23T01:32:02;98505.72;;;7.81
40199;BMP280;25906;43.536;26.068;2024-02-23T01:34:48;98503.53;;;7.76
40199;BMP280;25906;43.536;26.068;2024-02-23T01:37:33;98503.50;;;7.80
40199;BMP280;25906;43.536;26.068;2024-02-23T01:40:19;98500.41;;;7.85
40199;BMP280;25906;43.536;26.068;2024-02-23T01:43:05;98502.00;;;7.79
40199;BMP280;25906;43.536;26.068;2024-02-23T01:45:51;98502.28;;;7.84
40199;BMP280;25906;43.536;26.068;2024-02-23T01:48:36;98494.38;;;7.84
40199;BMP280;25906;43.536;26.068;2024-02-23T01:51:22;98494.03;;;7.82
40199;BMP280;25906;43.536;26.068;2024-02-23T01:54:09;98503.53;;;7.76
40199;BMP280;25906;43.536;26.068;2024-02-23T01:56:55;98502.91;;;7.72
40199;BMP280;25906;43.536;26.068;2024-02-23T01:59:42;98497.63;;;7.72
40199;BMP280;25906;43.536;26.068;2024-02-23T02:02:28;98492.00;;;7.70
40199;BMP280;25906;43.536;26.068;2024-02-23T02:05:14;98506.34;;;7.66
40199;BMP280;25906;43.536;26.068;2024-02-23T02:08:00;98498.56;;;7.62
40199;BMP280;25906;43.536;26.068;2024-02-23T02:10:46;98492.81;;;7.44
40199;BMP280;25906;43.536;26.068;2024-02-23T02:13:32;98504.75;;;7.52
40199;BMP280;25906;43.536;26.068;2024-02-23T02:16:17;98496.50;;;7.50
40199;BMP280;25906;43.536;26.068;2024-02-23T02:19:03;98496.28;;;7.41
40199;BMP280;25906;43.536;26.068;2024-02-23T02:21:48;98495.75;;;7.50
40199;BMP280;25906;43.536;26.068;2024-02-23T02:24:34;98498.06;;;7.48
40199;BMP280;25906;43.536;26.068;2024-02-23T02:27:19;98498.19;;;7.40
40199;BMP280;25906;43.536;26.068;2024-02-23T02:30:05;98498.00;;;7.28
40199;BMP280;25906;43.536;26.068;2024-02-23T02:32:50;98497.53;;;7.33
40199;BMP280;25906;43.536;26.068;2024-02-23T02:35:36;98491.16;;;7.30
40199;BMP280;25906;43.536;26.068;2024-02-23T02:38:22;98494.81;;;7.40
40199;BMP280;25906;43.536;26.068;2024-02-23T02:41:08;98503.34;;;7.44
40199;BMP280;25906;43.536;26.068;2024-02-23T02:43:54;98502.22;;;7.45
40199;BMP280;25906;43.536;26.068;2024-02-23T02:46:40;98500.22;;;7.53
40199;BMP280;25906;43.536;26.068;2024-02-23T02:49:26;98512.66;;;7.52
40199;BMP280;25906;43.536;26.068;2024-02-23T02:52:11;98509.25;;;7.52
40199;BMP280;25906;43.536;26.068;2024-02-23T02:54:57;98507.38;;;7.52
40199;BMP280;25906;43.536;26.068;2024-02-23T02:57:44;98516.63;;;7.60
40199;BMP280;25906;43.536;26.068;2024-02-23T03:00:30;98509.69;;;7.70
40199;BMP280;25906;43.536;26.068;2024-02-23T03:03:16;98514.22;;;7.69
40199;BMP280;25906;43.536;26.068;2024-02-23T03:06:02;98503.69;;;7.69
40199;BMP280;25906;43.536;26.068;2024-02-23T03:08:47;98503.22;;;7.74
40199;BMP280;25906;43.536;26.068;2024-02-23T03:11:33;98493.84;;;7.73
40199;BMP280;25906;43.536;26.068;2024-02-23T03:14:18;98508.09;;;7.76
40199;BMP280;25906;43.536;26.068;2024-02-23T03:17:09;98501.63;;;7.80
40199;BMP280;25906;43.536;26.068;2024-02-23T03:19:57;98500.91;;;7.76
40199;BMP280;25906;43.536;26.068;2024-02-23T03:22:43;98511.19;;;7.71
40199;BMP280;25906;43.536;26.068;2024-02-23T03:25:29;98502.53;;;7.70
40199;BMP280;25906;43.536;26.068;2024-02-23T03:28:14;98494.66;;;7.70
40199;BMP280;25906;43.536;26.068;2024-02-23T03:31:00;98504.06;;;7.68
40199;BMP280;25906;43.536;26.068;2024-02-23T03:33:45;98505.19;;;7.70
40199;BMP280;25906;43.536;26.068;2024-02-23T03:36:31;98502.47;;;7.74
40199;BMP280;25906;43.536;26.068;2024-02-23T03:39:16;98504.91;;;7.84
40199;BMP280;25906;43.536;26.068;2024-02-23T03:42:02;98500.91;;;7.76
40199;BMP280;25906;43.536;26.068;2024-02-23T03:44:47;98497.13;;;7.77
40199;BMP280;25906;43.536;26.068;2024-02-23T03:47:33;98494.38;;;7.84
40199;BMP280;25906;43.536;26.068;2024-02-23T03:50:18;98499.25;;;7.86
40199;BMP280;25906;43.536;26.068;2024-02-23T03:53:04;98494.59;;;7.94
40199;BMP280;25906;43.536;26.068;2024-02-23T03:55:49;98503.53;;;7.76
40199;BMP280;25906;43.536;26.068;2024-02-23T03:58:34;98496.66;;;7.82
40199;BMP280;25906;43.536;26.068;2024-02-23T04:01:20;98497.88;;;7.78
40199;BMP280;25906;43.536;26.068;2024-02-23T04:04:06;98498.41;;;7.69
40199;BMP280;25906;43.536;26.068;2024-02-23T04:06:51;98498.38;;;7.73
40199;BMP280;25906;43.536;26.068;2024-02-23T04:09:37;98501.25;;;7.78
40199;BMP280;25906;43.536;26.068;2024-02-23T04:12:22;98505.78;;;7.78
40199;BMP280;25906;43.536;26.068;2024-02-23T04:15:09;98510.66;;;7.79
40199;BMP280;25906;43.536;26.068;2024-02-23T04:17:54;98501.94;;;7.82
40199;BMP280;25906;43.536;26.068;2024-02-23T04:20:39;98501.88;;;7.86
40199;BMP280;25906;43.536;26.068;2024-02-23T04:23:25;98501.06;;;7.89
40199;BMP280;25906;43.536;26.068;2024-02-23T04:26:11;98508.78;;;7.80
40199;BMP280;25906;43.536;26.068;2024-02-23T04:28:57;98495.53;;;7.83
40199;BMP280;25906;43.536;26.068;2024-02-23T04:31:42;98496.00;;;7.78
40199;BMP280;25906;43.536;26.068;2024-02-23T04:34:28;98506.41;;;7.85
40199;BMP280;25906;43.536;26.068;2024-02-23T04:37:13;98509.38;;;7.88
40199;BMP280;25906;43.536;26.068;2024-02-23T04:39:59;98513.28;;;7.79
40199;BMP280;25906;43.536;26.068;2024-02-23T04:42:44;98517.56;;;7.73
40199;BMP280;25906;43.536;26.068;2024-02-23T04:45:31;98516.38;;;7.74
40199;BMP280;25906;43.536;26.068;2024-02-23T04:48:16;98516.38;;;7.74
40199;BMP280;25906;43.536;26.068;2024-02-23T04:51:02;98512.84;;;7.61
40199;BMP280;25906;43.536;26.068;2024-02-23T04:53:47;98510.56;;;7.63
40199;BMP280;25906;43.536;26.068;2024-02-23T04:56:32;98504.00;;;7.52
40199;BMP280;25906;43.536;26.068;2024-02-23T04:59:18;98509.50;;;7.37
40199;BMP280;25906;43.536;26.068;2024-02-23T05:02:04;98507.09;;;7.47
40199;BMP280;25906;43.536;26.068;2024-02-23T05:04:49;98500.72;;;7.44
40199;BMP280;25906;43.536;26.068;2024-02-23T05:07:35;98507.09;;;7.47
40199;BMP280;25906;43.536;26.068;2024-02-23T05:10:20;98509.31;;;7.48
40199;BMP280;25906;43.536;26.068;2024-02-23T05:13:06;98518.31;;;7.51
40199;BMP280;25906;43.536;26.068;2024-02-23T05:15:51;98523.25;;;7.49
40199;BMP280;25906;43.536;26.068;2024-02-23T05:18:37;98522.44;;;7.52
40199;BMP280;25906;43.536;26.068;2024-02-23T05:21:22;98530.81;;;7.66
40199;BMP280;25906;43.536;26.068;2024-02-23T05:24:08;98523.25;;;7.68
40199;BMP280;25906;43.536;26.068;2024-02-23T05:26:53;98535.53;;;7.55
40199;BMP280;25906;43.536;26.068;2024-02-23T05:29:38;98533.16;;;7.64
40199;BMP280;25906;43.536;26.068;2024-02-23T05:32:24;98544.34;;;7.68
40199;BMP280;25906;43.536;26.068;2024-02-23T05:35:10;98545.94;;;7.62
40199;BMP280;25906;43.536;26.068;2024-02-23T05:37:55;98547.53;;;7.79
40199;BMP280;25906;43.536;26.068;2024-02-23T05:40:41;98551.53;;;7.88
40199;BMP280;25906;43.536;26.068;2024-02-23T05:43:26;98554.16;;;7.88
40199;BMP280;25906;43.536;26.068;2024-02-23T05:46:11;98552.91;;;7.96
40199;BMP280;25906;43.536;26.068;2024-02-23T05:48:57;98552.38;;;8.04
40199;BMP280;25906;43.536;26.068;2024-02-23T05:51:42;98552.44;;;8.20
40199;BMP280;25906;43.536;26.068;2024-02-23T05:54:28;98555.00;;;8.24
40199;BMP280;25906;43.536;26.068;2024-02-23T05:57:14;98557.69;;;8.40
40199;BMP280;25906;43.536;26.068;2024-02-23T05:59:59;98552.88;;;8.55
40199;BMP280;25906;43.536;26.068;2024-02-23T06:02:45;98544.06;;;8.61
40199;BMP280;25906;43.536;26.068;2024-02-23T06:05:30;98554.84;;;8.87
40199;BMP280;25906;43.536;26.068;2024-02-23T06:08:16;98553.69;;;9.04
40199;BMP280;25906;43.536;26.068;2024-02-23T06:11:02;98554.22;;;9.15
40199;BMP280;25906;43.536;26.068;2024-02-23T06:13:48;98555.13;;;9.25
40199;BMP280;25906;43.536;26.068;2024-02-23T06:16:34;98561.94;;;9.38
40199;BMP280;25906;43.536;26.068;2024-02-23T06:19:19;98557.13;;;9.49
40199;BMP280;25906;43.536;26.068;2024-02-23T06:22:05;98570.50;;;9.58
40199;BMP280;25906;43.536;26.068;2024-02-23T06:24:51;98573.03;;;9.78
40199;BMP280;25906;43.536;26.068;2024-02-23T06:27:37;98567.63;;;9.82
40199;BMP280;25906;43.536;26.068;2024-02-23T06:30:22;98574.59;;;10.04
40199;BMP280;25906;43.536;26.068;2024-02-23T06:33:08;98581.56;;;9.98
40199;BMP280;25906;43.536;26.068;2024-02-23T06:35:53;98582.66;;;10.13
40199;BMP280;25906;43.536;26.068;2024-02-23T06:38:39;98573.81;;;10.20
40199;BMP280;25906;43.536;26.068;2024-02-23T06:41:24;98579.22;;;10.29
40199;BMP280;25906;43.536;26.068;2024-02-23T06:44:10;98581.47;;;10.43
40199;BMP280;25906;43.536;26.068;2024-02-23T06:46:56;98589.84;;;10.54
40199;BMP280;25906;43.536;26.068;2024-02-23T06:49:42;98582.75;;;10.77
40199;BMP280;25906;43.536;26.068;2024-02-23T06:52:29;98586.38;;;10.83
40199;BMP280;25906;43.536;26.068;2024-02-23T06:55:14;98577.16;;;10.87
40199;BMP280;25906;43.536;26.068;2024-02-23T06:58:00;98584.53;;;11.05
40199;BMP280;25906;43.536;26.068;2024-02-23T07:00:45;98583.59;;;10.99
40199;BMP280;25906;43.536;26.068;2024-02-23T07:03:31;98575.53;;;11.15
40199;BMP280;25906;43.536;26.068;2024-02-23T07:06:17;98581.53;;;11.28
40199;BMP280;25906;43.536;26.068;2024-02-23T07:09:03;98581.22;;;11.39
40199;BMP280;25906;43.536;26.068;2024-02-23T07:11:49;98579.25;;;11.52
40199;BMP280;25906;43.536;26.068;2024-02-23T07:14:35;98580.09;;;11.62
40199;BMP280;25906;43.536;26.068;2024-02-23T07:17:20;98578.59;;;11.61
40199;BMP280;25906;43.536;26.068;2024-02-23T07:20:06;98580.16;;;11.71
40199;BMP280;25906;43.536;26.068;2024-02-23T07:22:52;98583.66;;;11.89
40199;BMP280;25906;43.536;26.068;2024-02-23T07:25:37;98580.69;;;12.09
40199;BMP280;25906;43.536;26.068;2024-02-23T07:28:22;98581.50;;;12.19
40199;BMP280;25906;43.536;26.068;2024-02-23T07:31:10;98573.59;;;12.37
40199;BMP280;25906;43.536;26.068;2024-02-23T07:33:55;98578.72;;;12.53
40199;BMP280;25906;43.536;26.068;2024-02-23T07:36:41;98575.34;;;12.62
40199;BMP280;25906;43.536;26.068;2024-02-23T07:39:28;98582.78;;;12.85
40199;BMP280;25906;43.536;26.068;2024-02-23T07:42:13;98581.34;;;12.93
40199;BMP280;25906;43.536;26.068;2024-02-23T07:45:04;98583.59;;;13.03
40199;BMP280;25906;43.536;26.068;2024-02-23T07:47:50;98576.84;;;13.21
40199;BMP280;25906;43.536;26.068;2024-02-23T07:50:35;98582.59;;;13.19
40199;BMP280;25906;43.536;26.068;2024-02-23T07:53:21;98588.66;;;13.47
40199;BMP280;25906;43.536;26.068;2024-02-23T07:56:09;98590.13;;;13.66
40199;BMP280;25906;43.536;26.068;2024-02-23T07:58:55;98579.03;;;13.77
40199;BMP280;25906;43.536;26.068;2024-02-23T08:01:40;98581.09;;;13.82
40199;BMP280;25906;43.536;26.068;2024-02-23T08:04:26;98576.94;;;13.81
40199;BMP280;25906;43.536;26.068;2024-02-23T08:07:12;98569.94;;;14.11
40199;BMP280;25906;43.536;26.068;2024-02-23T08:09:57;98570.00;;;14.34
40199;BMP280;25906;43.536;26.068;2024-02-23T08:12:43;98575.38;;;14.58
40199;BMP280;25906;43.536;26.068;2024-02-23T08:15:28;98573.00;;;14.60
40199;BMP280;25906;43.536;26.068;2024-02-23T08:18:14;98580.56;;;14.85
40199;BMP280;25906;43.536;26.068;2024-02-23T08:20:59;98577.25;;;14.67
40199;BMP280;25906;43.536;26.068;2024-02-23T08:23:47;98573.34;;;15.00
40199;BMP280;25906;43.536;26.068;2024-02-23T08:26:33;98578.78;;;15.06
40199;BMP280;25906;43.536;26.068;2024-02-23T08:29:19;98581.31;;;15.10
40199;BMP280;25906;43.536;26.068;2024-02-23T08:32:05;98582.78;;;15.11
40199;BMP280;25906;43.536;26.068;2024-02-23T08:34:51;98580.22;;;15.16
40199;BMP280;25906;43.536;26.068;2024-02-23T08:37:38;98580.00;;;15.43
40199;BMP280;25906;43.536;26.068;2024-02-23T08:40:23;98586.19;;;15.64
40199;BMP280;25906;43.536;26.068;2024-02-23T08:43:09;98586.94;;;15.65
40199;BMP280;25906;43.536;26.068;2024-02-23T08:45:54;98586.63;;;15.63
40199;BMP280;25906;43.536;26.068;2024-02-23T08:48:40;98581.03;;;15.75
40199;BMP280;25906;43.536;26.068;2024-02-23T08:51:25;98580.94;;;15.84
40199;BMP280;25906;43.536;26.068;2024-02-23T08:54:11;98591.91;;;15.86
40199;BMP280;25906;43.536;26.068;2024-02-23T08:56:57;98595.56;;;15.89
40199;BMP280;25906;43.536;26.068;2024-02-23T08:59:42;98589.41;;;16.12
40199;BMP280;25906;43.536;26.068;2024-02-23T09:02:28;98587.09;;;16.20
40199;BMP280;25906;43.536;26.068;2024-02-23T09:05:13;98594.81;;;16.32
40199;BMP280;25906;43.536;26.068;2024-02-23T09:07:59;98594.09;;;16.17
40199;BMP280;25906;43.536;26.068;2024-02-23T09:10:44;98602.00;;;16.41
40199;BMP280;25906;43.536;26.068;2024-02-23T09:13:30;98594.44;;;16.39
40199;BMP280;25906;43.536;26.068;2024-02-23T09:16:15;98592.88;;;16.33
40199;BMP280;25906;43.536;26.068;2024-02-23T09:19:01;98590.16;;;16.47
40199;BMP280;25906;43.536;26.068;2024-02-23T09:21:47;98587.09;;;16.75
40199;BMP280;25906;43.536;26.068;2024-02-23T09:24:32;98587.66;;;16.79
40199;BMP280;25906;43.536;26.068;2024-02-23T09:27:20;98587.78;;;16.90
40199;BMP280;25906;43.536;26.068;2024-02-23T09:30:06;98585.22;;;17.21
40199;BMP280;25906;43.536;26.068;2024-02-23T09:32:52;98581.34;;;17.22
40199;BMP280;25906;43.536;26.068;2024-02-23T09:35:37;98589.78;;;17.15
40199;BMP280;25906;43.536;26.068;2024-02-23T09:38:23;98587.00;;;17.30
40199;BMP280;25906;43.536;26.068;2024-02-23T09:41:21;98589.47;;;17.33
40199;BMP280;25906;43.536;26.068;2024-02-23T09:44:08;98584.56;;;17.26
40199;BMP280;25906;43.536;26.068;2024-02-23T09:46:54;98581.66;;;17.30
40199;BMP280;25906;43.536;26.068;2024-02-23T09:49:40;98588.22;;;17.54
40199;BMP280;25906;43.536;26.068;2024-02-23T09:52:26;98581.16;;;17.83
40199;BMP280;25906;43.536;26.068;2024-02-23T09:55:14;98577.47;;;17.74
40199;BMP280;25906;43.536;26.068;2024-02-23T09:57:59;98573.97;;;17.68
40199;BMP280;25906;43.536;26.068;2024-02-23T10:00:45;98573.97;;;17.68
40199;BMP280;25906;43.536;26.068;2024-02-23T10:03:30;98571.69;;;17.82
40199;BMP280;25906;43.536;26.068;2024-02-23T10:06:16;98571.88;;;18.09
40199;BMP280;25906;43.536;26.068;2024-02-23T10:09:02;98568.66;;;18.05
40199;BMP280;25906;43.536;26.068;2024-02-23T10:11:55;98568.13;;;18.01
40199;BMP280;25906;43.536;26.068;2024-02-23T10:14:43;98565.13;;;18.25
40199;BMP280;25906;43.536;26.068;2024-02-23T10:17:30;98565.53;;;18.07
40199;BMP280;25906;43.536;26.068;2024-02-23T10:20:15;98561.03;;;18.29
40199;BMP280;25906;43.536;26.068;2024-02-23T10:23:01;98555.22;;;18.37
40199;BMP280;25906;43.536;26.068;2024-02-23T10:25:47;98556.63;;;18.26
40199;BMP280;25906;43.536;26.068;2024-02-23T10:28:34;98555.50;;;18.44
40199;BMP280;25906;43.536;26.068;2024-02-23T10:31:20;98552.47;;;18.25
40199;BMP280;25906;43.536;26.068;2024-02-23T10:34:08;98554.03;;;18.43
40199;BMP280;25906;43.536;26.068;2024-02-23T10:36:56;98549.78;;;18.25
40199;BMP280;25906;43.536;26.068;2024-02-23T10:39:42;98538.13;;;18.23
40199;BMP280;25906;43.536;26.068;2024-02-23T10:42:32;98545.53;;;18.50
40199;BMP280;25906;43.536;26.068;2024-02-23T10:45:19;98542.59;;;18.48
40199;BMP280;25906;43.536;26.068;2024-02-23T10:48:08;98534.34;;;18.57
40199;BMP280;25906;43.536;26.068;2024-02-23T10:50:56;98536.72;;;18.44
40199;BMP280;25906;43.536;26.068;2024-02-23T10:53:43;98535.53;;;18.45
40199;BMP280;25906;43.536;26.068;2024-02-23T10:56:29;98532.59;;;18.43
40199;BMP280;25906;43.536;26.068;2024-02-23T10:59:16;98527.16;;;18.91
40199;BMP280;25906;43.536;26.068;2024-02-23T11:02:07;98529.38;;;19.15
40199;BMP280;25906;43.536;26.068;2024-02-23T11:04:54;98523.00;;;18.90
40199;BMP280;25906;43.536;26.068;2024-02-23T11:07:41;98528.34;;;18.84
40199;BMP280;25906;43.536;26.068;2024-02-23T11:10:26;98521.25;;;18.81
40199;BMP280;25906;43.536;26.068;2024-02-23T11:13:13;98513.69;;;18.63
40199;BMP280;25906;43.536;26.068;2024-02-23T11:16:04;98518.38;;;18.96
40199;BMP280;25906;43.536;26.068;2024-02-23T11:18:49;98514.97;;;19.12
40199;BMP280;25906;43.536;26.068;2024-02-23T11:21:38;98517.63;;;18.96
40199;BMP280;25906;43.536;26.068;2024-02-23T11:24:27;98511.31;;;18.93
40199;BMP280;25906;43.536;26.068;2024-02-23T11:27:14;98514.25;;;19.01
40199;BMP280;25906;43.536;26.068;2024-02-23T11:30:06;98507.88;;;18.98
40199;BMP280;25906;43.536;26.068;2024-02-23T11:32:59;98507.63;;;18.90
40199;BMP280;25906;43.536;26.068;2024-02-23T11:35:47;98494.22;;;18.79
40199;BMP280;25906;43.536;26.068;2024-02-23T11:38:34;98493.97;;;18.83
40199;BMP280;25906;43.536;26.068;2024-02-23T11:41:21;98491.56;;;19.13
40199;BMP280;25906;43.536;26.068;2024-02-23T11:44:08;98492.31;;;19.08
40199;BMP280;25906;43.536;26.068;2024-02-23T11:46:54;98496.00;;;19.27
40199;BMP280;25906;43.536;26.068;2024-02-23T11:49:39;98495.72;;;19.47
40199;BMP280;25906;43.536;26.068;2024-02-23T11:52:25;98487.69;;;19.41
40199;BMP280;25906;43.536;26.068;2024-02-23T11:55:11;98487.91;;;19.05
40199;BMP280;25906;43.536;26.068;2024-02-23T11:57:56;98491.09;;;19.25
40199;BMP280;25906;43.536;26.068;2024-02-23T12:00:42;98488.41;;;19.14
40199;BMP280;25906;43.536;26.068;2024-02-23T12:03:30;98486.97;;;19.19
40199;BMP280;25906;43.536;26.068;2024-02-23T12:06:16;98500.59;;;19.21
40199;BMP280;25906;43.536;26.068;2024-02-23T12:09:02;98489.16;;;19.09
40199;BMP280;25906;43.536;26.068;2024-02-23T12:11:49;98493.31;;;19.27
40199;BMP280;25906;43.536;26.068;2024-02-23T12:14:36;98490.63;;;19.16
40199;BMP280;25906;43.536;26.068;2024-02-23T12:17:21;98496.97;;;19.24
40199;BMP280;25906;43.536;26.068;2024-02-23T12:20:07;98489.16;;;19.26
40199;BMP280;25906;43.536;26.068;2024-02-23T12:22:54;98487.16;;;19.04
40199;BMP280;25906;43.536;26.068;2024-02-23T12:25:39;98482.06;;;19.17
40199;BMP280;25906;43.536;26.068;2024-02-23T12:28:26;98486.44;;;19.04
40199;BMP280;25906;43.536;26.068;2024-02-23T12:31:11;98479.88;;;19.21
40199;BMP280;25906;43.536;26.068;2024-02-23T12:33:57;98484.03;;;19.22
40199;BMP280;25906;43.536;26.068;2024-02-23T12:36:43;98477.44;;;19.40
40199;BMP280;25906;43.536;26.068;2024-02-23T12:39:28;98476.94;;;19.47
40199;BMP280;25906;43.536;26.068;2024-02-23T12:42:14;98467.66;;;19.42
40199;BMP280;25906;43.536;26.068;2024-02-23T12:44:59;98467.16;;;19.44
40199;BMP280;25906;43.536;26.068;2024-02-23T12:47:45;98469.84;;;19.44
40199;BMP280;25906;43.536;26.068;2024-02-23T12:50:30;98471.34;;;19.17
40199;BMP280;25906;43.536;26.068;2024-02-23T12:53:39;98480.34;;;19.36
40199;BMP280;25906;43.536;26.068;2024-02-23T12:56:25;98470.84;;;19.30
40199;BMP280;25906;43.536;26.068;2024-02-23T12:59:10;98474.25;;;19.25
40199;BMP280;25906;43.536;26.068;2024-02-23T13:01:56;98468.63;;;19.45
40199;BMP280;25906;43.536;26.068;2024-02-23T13:04:41;98466.22;;;19.03
40199;BMP280;25906;43.536;26.068;2024-02-23T13:07:28;98464.25;;;19.14
40199;BMP280;25906;43.536;26.068;2024-02-23T13:10:14;98461.84;;;19.11
40199;BMP280;25906;43.536;26.068;2024-02-23T13:13:00;98458.66;;;19.23
40199;BMP280;25906;43.536;26.068;2024-02-23T13:15:46;98455.00;;;19.37
40199;BMP280;25906;43.536;26.068;2024-02-23T13:18:32;98469.41;;;19.07
40199;BMP280;25906;43.536;26.068;2024-02-23T13:21:18;98460.38;;;19.10
40199;BMP280;25906;43.536;26.068;2024-02-23T13:24:03;98468.16;;;18.97
40199;BMP280;25906;43.536;26.068;2024-02-23T13:26:49;98461.56;;;18.86
40199;BMP280;25906;43.536;26.068;2024-02-23T13:29:34;98456.72;;;19.35
40199;BMP280;25906;43.536;26.068;2024-02-23T13:32:21;98457.19;;;19.00
40199;BMP280;25906;43.536;26.068;2024-02-23T13:35:07;98457.94;;;18.95
40199;BMP280;25906;43.536;26.068;2024-02-23T13:37:54;98453.50;;;18.81
40199;BMP280;25906;43.536;26.068;2024-02-23T13:40:39;98459.84;;;18.89
40199;BMP280;25906;43.536;26.068;2024-02-23T13:43:25;98454.28;;;18.93
40199;BMP280;25906;43.536;26.068;2024-02-23T13:46:10;98444.75;;;18.75
40199;BMP280;25906;43.536;26.068;2024-02-23T13:49:06;98444.00;;;18.91
40199;BMP280;25906;43.536;26.068;2024-02-23T13:51:52;98446.47;;;18.95
40199;BMP280;25906;43.536;26.068;2024-02-23T13:54:38;98446.94;;;18.87
40199;BMP280;25906;43.536;26.068;2024-02-23T13:57:23;98447.66;;;18.88
40199;BMP280;25906;43.536;26.068;2024-02-23T14:00:09;98445.19;;;18.62
40199;BMP280;25906;43.536;26.068;2024-02-23T14:02:57;98439.16;;;18.78
40199;BMP280;25906;43.536;26.068;2024-02-23T14:05:44;98435.94;;;18.69
40199;BMP280;25906;43.536;26.068;2024-02-23T14:08:29;98442.31;;;18.82
40199;BMP280;25906;43.536;26.068;2024-02-23T14:11:15;98436.19;;;18.76
40199;BMP280;25906;43.536;26.068;2024-02-23T14:14:01;98430.06;;;18.54
40199;BMP280;25906;43.536;26.068;2024-02-23T14:16:48;98431.78;;;18.68
40199;BMP280;25906;43.536;26.068;2024-02-23T14:19:33;98426.41;;;18.51
40199;BMP280;25906;43.536;26.068;2024-02-23T14:22:18;98434.00;;;18.80
40199;BMP280;25906;43.536;26.068;2024-02-23T14:25:04;98431.09;;;18.78
40199;BMP280;25906;43.536;26.068;2024-02-23T14:27:50;98431.06;;;18.73
40199;BMP280;25906;43.536;26.068;2024-02-23T14:30:35;98431.06;;;18.67
40199;BMP280;25906;43.536;26.068;2024-02-23T14:33:21;98434.75;;;18.70
40199;BMP280;25906;43.536;26.068;2024-02-23T14:36:06;98435.91;;;18.47
40199;BMP280;25906;43.536;26.068;2024-02-23T14:38:52;98437.56;;;18.39
40199;BMP280;25906;43.536;26.068;2024-02-23T14:41:38;98443.19;;;18.41
40199;BMP280;25906;43.536;26.068;2024-02-23T14:44:24;98440.84;;;18.70
40199;BMP280;25906;43.536;26.068;2024-02-23T14:47:09;98443.75;;;18.61
40199;BMP280;25906;43.536;26.068;2024-02-23T14:49:55;98442.28;;;18.60
40199;BMP280;25906;43.536;26.068;2024-02-23T14:52:40;98452.72;;;18.47
40199;BMP280;25906;43.536;26.068;2024-02-23T14:55:26;98448.59;;;18.52
40199;BMP280;25906;43.536;26.068;2024-02-23T14:58:12;98448.47;;;18.18
40199;BMP280;25906;43.536;26.068;2024-02-23T15:00:58;98449.72;;;18.34
40199;BMP280;25906;43.536;26.068;2024-02-23T15:03:43;98457.97;;;18.19
40199;BMP280;25906;43.536;26.068;2024-02-23T15:06:29;98451.59;;;18.17
40199;BMP280;25906;43.536;26.068;2024-02-23T15:09:14;98465.28;;;17.76
40199;BMP280;25906;43.536;26.068;2024-02-23T15:11:59;98464.78;;;17.78
40199;BMP280;25906;43.536;26.068;2024-02-23T15:14:45;98460.00;;;17.93
40199;BMP280;25906;43.536;26.068;2024-02-23T15:17:31;98461.78;;;17.59
40199;BMP280;25906;43.536;26.068;2024-02-23T15:20:16;98457.47;;;17.36
40199;BMP280;25906;43.536;26.068;2024-02-23T15:23:02;98456.28;;;17.11
40199;BMP280;25906;43.536;26.068;2024-02-23T15:25:47;98457.41;;;17.05
40199;BMP280;25906;43.536;26.068;2024-02-23T15:28:33;98463.91;;;16.93
40199;BMP280;25906;43.536;26.068;2024-02-23T15:31:19;98465.69;;;16.81
40199;BMP280;25906;43.536;26.068;2024-02-23T15:34:06;98466.00;;;16.63
40199;BMP280;25906;43.536;26.068;2024-02-23T15:36:51;98466.09;;;16.48
40199;BMP280;25906;43.536;26.068;2024-02-23T15:39:36;98467.34;;;16.33
40199;BMP280;25906;43.536;26.068;2024-02-23T15:42:22;98465.94;;;16.17
40199;BMP280;25906;43.536;26.068;2024-02-23T15:45:08;98471.59;;;16.04
40199;BMP280;25906;43.536;26.068;2024-02-23T15:47:53;98462.50;;;15.96